Time;durP1;ratioP1;P1;durP2;ratioP2;P2;SDS_P1;SDS_P2;PMS_P1;PMS_P2;Temp;Humidity;BMP_temperature;BMP_pressure;BME280_temperature;BME280_humidity;BME280_pressure;Samples;Min_cycle;Max_cycle;Signal;HPM_P1;HPM_P2
2022/08/18 00:02:05;;;;;;;2.03;1.00;;;27.10;53.60;;;;;;5048589;28;20386;-51
2022/08/18 00:04:34;;;;;;;1.30;1.20;;;27.10;53.60;;;;;;5046292;28;20044;-53
2022/08/18 00:07:01;;;;;;;1.70;0.80;;;27.00;53.50;;;;;;5046468;28;20040;-53
2022/08/18 00:09:28;;;;;;;0.98;0.73;;;27.00;53.50;;;;;;5046525;28;20048;-54
2022/08/18 00:11:55;;;;;;;1.35;1.35;;;27.00;53.60;;;;;;5048024;28;20088;-54
2022/08/18 00:14:22;;;;;;;3.00;1.08;;;27.00;53.70;;;;;;5046514;28;20516;-55
2022/08/18 00:16:52;;;;;;;1.70;1.60;;;27.00;53.70;;;;;;5046573;28;20048;-55
2022/08/18 00:19:21;;;;;;;1.85;0.90;;;26.90;53.70;;;;;;5046650;28;20095;-56
2022/08/18 00:21:48;;;;;;;2.00;1.25;;;26.90;53.70;;;;;;5046865;28;20039;-54
2022/08/18 00:24:15;;;;;;;2.53;1.02;;;26.90;53.80;;;;;;5047694;28;20037;-54
2022/08/18 00:26:43;;;;;;;2.47;1.70;;;26.90;53.80;;;;;;5050479;28;20080;-52
2022/08/18 00:29:10;;;;;;;3.13;1.75;;;26.90;53.80;;;;;;5062065;28;20120;-53
2022/08/18 00:31:37;;;;;;;1.38;1.23;;;26.90;53.90;;;;;;5048201;28;20064;-53
2022/08/18 00:34:05;;;;;;;1.50;1.38;;;26.90;53.80;;;;;;5050984;28;20177;-51
2022/08/18 00:36:34;;;;;;;3.03;1.90;;;26.80;53.80;;;;;;5050968;28;20120;-51
2022/08/18 00:39:01;;;;;;;1.27;1.17;;;26.80;53.80;;;;;;5050967;28;20700;-54
2022/08/18 00:41:29;;;;;;;2.97;1.88;;;26.80;53.80;;;;;;5050816;28;20494;-52
2022/08/18 00:43:57;;;;;;;1.42;1.33;;;26.80;53.90;;;;;;5050159;28;20122;-50
2022/08/18 00:46:26;;;;;;;1.80;1.45;;;26.70;53.80;;;;;;5050542;28;20098;-52
2022/08/18 00:48:54;;;;;;;4.45;1.27;;;26.70;53.90;;;;;;5050163;28;20067;-49
2022/08/18 00:51:24;;;;;;;1.42;1.30;;;26.70;54.00;;;;;;5050159;28;20127;-51
2022/08/18 00:53:58;;;;;;;7.55;1.80;;;26.70;54.00;;;;;;5050502;28;20064;-54
2022/08/18 00:56:32;;;;;;;1.45;1.45;;;26.70;54.00;;;;;;5050865;28;20068;-54
2022/08/18 00:59:04;;;;;;;1.98;1.17;;;26.70;54.00;;;;;;5050339;28;20052;-55
2022/08/18 01:01:32;;;;;;;5.70;1.38;;;26.70;54.00;;;;;;5050081;28;20041;-54
2022/08/18 01:04:08;;;;;;;3.33;0.82;;;26.60;54.00;;;;;;5050138;28;20068;-53
2022/08/18 01:06:42;;;;;;;1.58;1.40;;;26.60;54.10;;;;;;5044814;28;20503;-52
2022/08/18 01:09:11;;;;;;;2.63;1.48;;;26.60;54.00;;;;;;5050350;28;20047;-53
2022/08/18 01:11:40;;;;;;;1.63;1.50;;;26.60;54.10;;;;;;5051198;28;20040;-54
2022/08/18 01:14:09;;;;;;;3.13;1.38;;;26.60;54.10;;;;;;5049547;28;20514;-54
2022/08/18 01:22:21;;;;;;;1.90;1.80;;;26.50;54.20;;;;;;5050276;28;20580;-51
2022/08/18 01:27:36;;;;;;;1.45;1.30;;;26.50;54.40;;;;;;5049762;28;20485;-54
2022/08/18 01:30:09;;;;;;;1.98;1.88;;;26.40;54.40;;;;;;5049937;28;20477;-54
2022/08/18 01:32:37;;;;;;;2.05;1.65;;;26.40;54.30;;;;;;5048762;28;20048;-51
2022/08/18 01:35:07;;;;;;;1.17;1.05;;;26.40;54.40;;;;;;5049990;28;20052;-53
2022/08/18 01:37:36;;;;;;;1.27;1.17;;;26.40;54.40;;;;;;5049283;28;20596;-51
2022/08/18 01:40:06;;;;;;;1.80;1.20;;;26.40;54.30;;;;;;5049174;28;20052;-52
2022/08/18 01:42:34;;;;;;;3.08;2.13;;;26.30;54.30;;;;;;5049518;28;20080;-50
2022/08/18 01:45:03;;;;;;;1.70;1.58;;;26.30;54.30;;;;;;5049286;28;20049;-52
2022/08/18 01:47:32;;;;;;;4.57;1.17;;;26.30;54.30;;;;;;5049198;28;20064;-52
2022/08/18 01:49:59;;;;;;;0.95;0.60;;;26.30;54.40;;;;;;5049121;28;20041;-50
2022/08/18 01:52:28;;;;;;;1.55;1.05;;;26.30;54.40;;;;;;5049396;28;20500;-51
2022/08/18 01:54:56;;;;;;;1.42;1.05;;;26.20;54.40;;;;;;5049152;28;20044;-53
2022/08/18 01:57:25;;;;;;;1.88;1.38;;;26.30;54.50;;;;;;5048579;28;20044;-52
2022/08/18 01:59:52;;;;;;;0.90;0.90;;;26.20;54.50;;;;;;5049066;28;20501;-54
2022/08/18 02:02:24;;;;;;;1.85;0.73;;;26.20;54.50;;;;;;5048831;28;20125;-49
2022/08/18 02:04:54;;;;;;;1.52;1.42;;;26.20;54.60;;;;;;5049072;28;20047;-54
2022/08/18 02:07:22;;;;;;;1.38;1.30;;;26.20;54.60;;;;;;5042438;28;20513;-54
2022/08/18 02:09:49;;;;;;;2.00;0.77;;;26.20;54.70;;;;;;5045334;28;20159;-54
2022/08/18 02:12:16;;;;;;;1.35;1.25;;;26.10;54.50;;;;;;5041308;28;20057;-53
2022/08/18 02:14:44;;;;;;;0.88;0.88;;;26.10;54.50;;;;;;5048886;28;20056;-54
2022/08/18 02:17:13;;;;;;;1.90;0.80;;;26.10;55.10;;;;;;5048568;28;20040;-50
2022/08/18 02:19:43;;;;;;;4.35;0.73;;;26.10;54.50;;;;;;5048683;28;20056;-54
2022/08/18 02:22:13;;;;;;;2.20;1.27;;;26.10;54.50;;;;;;5048711;28;20033;-53
2022/08/18 02:24:41;;;;;;;0.63;0.60;;;26.10;54.40;;;;;;5042585;28;20045;-52
2022/08/18 02:27:10;;;;;;;2.75;1.10;;;26.10;54.30;;;;;;5048233;28;20493;-53
2022/08/18 02:29:38;;;;;;;2.30;1.00;;;26.10;54.20;;;;;;5048576;28;20095;-52
2022/08/18 02:32:08;;;;;;;0.90;0.90;;;26.10;54.00;;;;;;5049925;28;20037;-54
2022/08/18 02:34:35;;;;;;;1.55;0.80;;;26.10;53.80;;;;;;5046943;28;20049;-53
2022/08/18 02:37:03;;;;;;;2.17;1.23;;;26.00;53.60;;;;;;5048019;28;20048;-51
2022/08/18 02:39:30;;;;;;;1.27;0.73;;;26.00;53.40;;;;;;5048179;28;20138;-52
2022/08/18 02:41:57;;;;;;;0.77;0.77;;;26.00;53.30;;;;;;5048123;28;20513;-53
2022/08/18 02:44:24;;;;;;;2.08;1.25;;;26.00;53.30;;;;;;5048306;28;20045;-53
2022/08/18 02:46:53;;;;;;;5.53;0.80;;;26.00;53.30;;;;;;5047855;28;20382;-52
2022/08/18 02:49:22;;;;;;;3.90;0.95;;;26.00;53.20;;;;;;5047505;28;20052;-52
2022/08/18 02:51:49;;;;;;;1.27;1.17;;;25.90;53.00;;;;;;5047757;28;20037;-51
2022/08/18 02:54:18;;;;;;;0.90;0.90;;;25.90;53.00;;;;;;5047785;28;20049;-53
2022/08/18 02:56:46;;;;;;;0.63;0.63;;;25.90;53.00;;;;;;5047726;28;20037;-50
2022/08/18 02:59:18;;;;;;;1.67;0.47;;;25.90;53.00;;;;;;5048268;28;20044;-54
2022/08/18 03:01:47;;;;;;;1.40;0.47;;;25.90;53.50;;;;;;5057583;28;20529;-55
2022/08/18 03:04:18;;;;;;;3.92;0.82;;;25.90;52.80;;;;;;5048004;28;20110;-50
2022/08/18 03:06:46;;;;;;;3.10;0.70;;;25.80;52.70;;;;;;5048262;28;20033;-53
2022/08/18 03:09:15;;;;;;;1.75;1.58;;;25.80;52.80;;;;;;5048007;28;20041;-54
2022/08/18 03:11:43;;;;;;;2.05;1.08;;;25.80;52.70;;;;;;5049047;28;20052;-49
2022/08/18 03:14:11;;;;;;;1.08;0.63;;;25.70;52.70;;;;;;5048126;28;20420;-51
2022/08/18 03:16:39;;;;;;;0.60;0.60;;;25.70;52.70;;;;;;5047989;28;20207;-54
2022/08/18 03:19:06;;;;;;;0.63;0.60;;;25.80;52.80;;;;;;5048045;28;20477;-53
2022/08/18 03:21:36;;;;;;;2.95;1.48;;;25.70;52.70;;;;;;5047159;28;20068;-54
2022/08/18 03:24:06;;;;;;;1.35;1.35;;;25.70;52.70;;;;;;5046288;28;20065;-50
2022/08/18 03:26:34;;;;;;;0.73;0.60;;;25.70;52.70;;;;;;5047624;28;20045;-53
2022/08/18 03:29:01;;;;;;;0.60;0.60;;;25.70;52.70;;;;;;5067310;28;20047;-53
2022/08/18 03:31:31;;;;;;;0.88;0.65;;;25.60;52.60;;;;;;5047843;28;20430;-52
2022/08/18 03:33:59;;;;;;;3.88;1.38;;;25.70;52.70;;;;;;5047735;28;20055;-55
2022/08/18 03:36:29;;;;;;;1.10;0.93;;;25.60;52.60;;;;;;5046431;28;20040;-54
2022/08/18 03:38:56;;;;;;;1.95;0.93;;;25.60;52.60;;;;;;5056456;28;20059;-55
2022/08/18 03:41:26;;;;;;;2.15;0.80;;;25.60;52.70;;;;;;5067691;28;20408;-52
2022/08/18 03:43:54;;;;;;;0.77;0.60;;;25.60;52.60;;;;;;5049624;28;20128;-54
2022/08/18 03:46:22;;;;;;;0.65;0.50;;;25.60;52.60;;;;;;5047147;28;20116;-54
2022/08/18 03:48:50;;;;;;;1.05;0.57;;;25.60;52.60;;;;;;5046871;28;20040;-51
2022/08/18 03:51:20;;;;;;;2.50;1.08;;;25.60;52.60;;;;;;5047285;28;20067;-52
2022/08/18 03:53:49;;;;;;;1.33;0.50;;;25.60;52.70;;;;;;5046725;28;20056;-53
2022/08/18 03:56:19;;;;;;;0.90;0.90;;;25.60;52.70;;;;;;5047360;28;20045;-53
2022/08/18 03:58:50;;;;;;;1.23;0.98;;;25.50;52.60;;;;;;5047201;28;20569;-52
2022/08/18 04:01:19;;;;;;;4.32;0.75;;;25.50;52.50;;;;;;5049715;28;20041;-51
2022/08/18 04:03:48;;;;;;;1.27;0.82;;;25.50;52.50;;;;;;5051568;28;20041;-54
2022/08/18 04:06:16;;;;;;;2.72;0.73;;;25.50;52.50;;;;;;5051153;28;20041;-54
2022/08/18 04:08:45;;;;;;;0.75;0.60;;;25.50;53.20;;;;;;5051324;28;20053;-53
2022/08/18 04:11:13;;;;;;;0.57;0.52;;;25.50;52.60;;;;;;5060424;28;20309;-54
2022/08/18 04:13:40;;;;;;;1.15;0.63;;;25.40;52.50;;;;;;5047071;28;20044;-52
2022/08/18 04:16:09;;;;;;;2.55;2.03;;;25.40;52.50;;;;;;5051079;28;20041;-52
2022/08/18 04:18:36;;;;;;;0.45;0.45;;;25.40;52.50;;;;;;5050673;28;20045;-53
2022/08/18 04:21:06;;;;;;;1.17;0.65;;;25.40;52.50;;;;;;5051185;28;20461;-52
2022/08/18 04:23:34;;;;;;;1.15;0.85;;;25.40;52.50;;;;;;5051227;28;20468;-52
2022/08/18 04:26:01;;;;;;;1.27;0.50;;;25.40;52.50;;;;;;5050798;28;20501;-52
2022/08/18 04:28:30;;;;;;;2.38;0.80;;;25.40;52.60;;;;;;5050801;28;20044;-54
2022/08/18 04:30:58;;;;;;;1.15;0.65;;;25.40;52.60;;;;;;5050562;28;20045;-51
2022/08/18 04:33:27;;;;;;;1.58;0.80;;;25.40;52.60;;;;;;5050114;28;20045;-49
2022/08/18 04:35:54;;;;;;;2.47;0.60;;;25.40;52.60;;;;;;5030708;28;20038;-52
2022/08/18 04:38:23;;;;;;;1.63;1.02;;;25.40;52.60;;;;;;5044202;28;20134;-53
2022/08/18 04:40:50;;;;;;;2.05;0.75;;;25.30;52.60;;;;;;5051171;28;20052;-52
2022/08/18 04:43:17;;;;;;;1.58;0.98;;;25.30;52.60;;;;;;5050575;28;20122;-53
2022/08/18 04:45:45;;;;;;;1.15;0.85;;;25.30;52.60;;;;;;5050691;28;20041;-54
2022/08/18 04:48:14;;;;;;;0.65;0.65;;;25.30;52.70;;;;;;5050617;28;20060;-50
2022/08/18 04:50:44;;;;;;;1.05;0.95;;;25.30;52.80;;;;;;5050225;28;20048;-54
2022/08/18 04:56:07;;;;;;;0.88;0.88;;;25.30;52.80;;;;;;5008182;28;20129;-55
2022/08/18 04:58:34;;;;;;;0.68;0.68;;;25.30;52.80;;;;;;4992027;28;20050;-52
2022/08/18 05:01:01;;;;;;;3.28;0.93;;;25.30;52.80;;;;;;5007642;28;20092;-51
2022/08/18 05:03:28;;;;;;;2.47;0.90;;;25.30;52.90;;;;;;4989908;28;20057;-52
2022/08/18 05:05:59;;;;;;;4.30;0.82;;;25.30;52.90;;;;;;4988125;28;20077;-54
2022/08/18 05:08:26;;;;;;;1.27;1.27;;;25.30;52.90;;;;;;5007613;28;20600;-53
2022/08/18 05:10:54;;;;;;;1.02;0.93;;;25.30;52.90;;;;;;4991305;28;20637;-53
2022/08/18 05:13:21;;;;;;;1.92;0.98;;;25.30;53.00;;;;;;4991883;28;20048;-55
2022/08/18 05:15:53;;;;;;;0.60;0.60;;;25.30;53.00;;;;;;4998029;28;20049;-52
2022/08/18 05:18:23;;;;;;;1.73;0.60;;;25.20;53.00;;;;;;4988130;28;20186;-53
2022/08/18 05:20:51;;;;;;;1.77;0.80;;;25.20;53.10;;;;;;4981497;28;20508;-52
2022/08/18 05:23:20;;;;;;;3.72;1.20;;;25.20;53.10;;;;;;5007482;28;20057;-54
2022/08/18 05:25:47;;;;;;;1.40;0.70;;;25.20;53.20;;;;;;5007315;28;20429;-54
2022/08/18 05:28:15;;;;;;;1.30;0.93;;;25.20;53.30;;;;;;4991539;28;20042;-53
2022/08/18 05:30:43;;;;;;;3.13;0.85;;;25.20;53.80;;;;;;5019978;28;20063;-56
2022/08/18 05:33:10;;;;;;;1.45;0.73;;;25.20;53.30;;;;;;5050126;28;20045;-54
2022/08/18 05:35:43;;;;;;;1.05;0.95;;;25.20;53.30;;;;;;5048763;28;20047;-54
2022/08/18 05:38:27;;;;;;;0.93;0.80;;;25.10;53.30;;;;;;5049877;28;20067;-53
2022/08/18 05:41:07;;;;;;;1.48;0.75;;;25.20;53.40;;;;;;5047965;28;20033;-55
2022/08/18 05:43:36;;;;;;;2.28;0.90;;;25.10;53.30;;;;;;5044538;28;20044;-54
2022/08/18 05:46:05;;;;;;;1.95;1.25;;;25.10;53.30;;;;;;5049822;28;20051;-54
2022/08/18 05:48:32;;;;;;;0.93;0.77;;;25.10;53.40;;;;;;5048791;28;20045;-55
2022/08/18 05:51:02;;;;;;;1.65;1.30;;;25.00;53.20;;;;;;5049186;28;20053;-55
2022/08/18 05:59:01;;;;;;;1.33;0.80;;;25.00;53.20;;;;;;5049132;28;20036;-54
2022/08/18 06:01:40;;;;;;;1.65;1.00;;;25.00;53.30;;;;;;5049243;28;20055;-56
2022/08/18 06:04:22;;;;;;;1.50;1.38;;;25.00;53.30;;;;;;5048610;28;20052;-56
2022/08/18 06:06:51;;;;;;;1.02;0.93;;;24.90;53.20;;;;;;5048845;28;20716;-51
2022/08/18 06:09:23;;;;;;;5.97;2.80;;;25.00;53.40;;;;;;5049893;28;20051;-52
2022/08/18 06:11:54;;;;;;;1.63;0.82;;;24.90;53.30;;;;;;5048714;28;20041;-54
2022/08/18 06:14:21;;;;;;;1.10;0.65;;;24.90;53.30;;;;;;5048764;28;20041;-53
2022/08/18 06:16:58;;;;;;;0.88;0.88;;;24.90;53.30;;;;;;5048531;28;20041;-55
2022/08/18 06:19:35;;;;;;;1.55;1.23;;;24.90;53.40;;;;;;5048255;28;20106;-52
2022/08/18 06:22:14;;;;;;;2.88;1.65;;;24.90;53.40;;;;;;5048608;28;20056;-55
2022/08/18 06:24:49;;;;;;;4.28;1.52;;;24.90;53.40;;;;;;5047129;28;20052;-55
2022/08/18 06:27:29;;;;;;;1.75;1.48;;;24.90;53.50;;;;;;5049401;28;20040;-53
2022/08/18 06:30:06;;;;;;;2.90;1.67;;;24.90;53.50;;;;;;5060005;28;20043;-55
2022/08/18 06:32:57;;;;;;;3.28;1.70;;;24.90;53.60;;;;;;5045287;28;20056;-54
2022/08/18 06:35:33;;;;;;;4.57;0.98;;;24.90;53.60;;;;;;5047944;28;20649;-52
2022/08/18 06:38:38;;;;;;;3.15;1.48;;;24.90;53.70;;;;;;5028769;28;20054;-55
2022/08/18 06:41:13;;;;;;;5.82;1.13;;;24.90;53.80;;;;;;5044770;28;20044;-55
2022/08/18 06:43:53;;;;;;;6.37;1.70;;;24.90;54.40;;;;;;5047878;28;20154;-52
2022/08/18 06:46:26;;;;;;;2.33;2.13;;;24.80;53.80;;;;;;5047454;28;20153;-53
2022/08/18 06:48:56;;;;;;;2.40;2.20;;;24.90;53.90;;;;;;5047876;28;20033;-55
2022/08/18 06:51:28;;;;;;;4.72;3.42;;;24.80;53.80;;;;;;5052728;28;20041;-55
2022/08/18 06:53:59;;;;;;;2.47;2.38;;;24.90;53.90;;;;;;5059093;28;20029;-55
2022/08/18 06:56:36;;;;;;;2.10;1.85;;;24.90;54.50;;;;;;5055094;28;20057;-53
2022/08/18 06:59:19;;;;;;;6.07;2.17;;;24.90;53.90;;;;;;5046962;28;20742;-55
2022/08/18 07:01:49;;;;;;;3.47;1.92;;;24.90;54.00;;;;;;5054518;28;20041;-53
2022/08/18 07:04:58;;;;;;;1.92;1.83;;;24.90;54.00;;;;;;5056145;28;20521;-51
2022/08/18 07:07:32;;;;;;;3.05;2.30;;;24.90;54.00;;;;;;5017926;28;20053;-54
2022/08/18 07:10:00;;;;;;;3.17;2.72;;;24.90;54.20;;;;;;5018031;28;20107;-51
2022/08/18 07:12:29;;;;;;;5.65;2.72;;;24.90;54.20;;;;;;5018954;28;20558;-52
2022/08/18 07:14:58;;;;;;;6.95;3.17;;;24.90;54.30;;;;;;5022794;28;20091;-48
2022/08/18 07:17:28;;;;;;;4.05;3.58;;;24.90;54.40;;;;;;5022289;28;20475;-49
2022/08/18 07:20:02;;;;;;;5.80;3.85;;;24.90;54.50;;;;;;5015251;28;20611;-54
2022/08/18 07:22:29;;;;;;;4.22;3.45;;;25.00;54.60;;;;;;5022950;28;20072;-53
2022/08/18 07:24:59;;;;;;;5.05;3.47;;;25.00;54.60;;;;;;5016395;28;20528;-52
2022/08/18 07:27:47;;;;;;;7.63;3.47;;;25.10;54.70;;;;;;5011704;28;20103;-50
2022/08/18 07:30:28;;;;;;;10.05;3.45;;;25.20;54.60;;;;;;5005038;28;20034;-47
2022/08/18 07:33:01;;;;;;;5.45;3.22;;;25.20;54.60;;;;;;5017430;28;20053;-49
2022/08/18 07:35:34;;;;;;;4.35;3.40;;;25.20;54.60;;;;;;5023952;28;20049;-45
2022/08/18 07:38:07;;;;;;;5.38;4.03;;;25.20;54.60;;;;;;5022667;28;20041;-48
2022/08/18 07:40:40;;;;;;;9.07;3.92;;;25.30;54.60;;;;;;5022493;28;20045;-51
2022/08/18 07:43:17;;;;;;;6.40;3.95;;;25.40;54.50;;;;;;5027767;28;20152;-49
2022/08/18 07:45:46;;;;;;;12.45;4.93;;;25.40;54.50;;;;;;5043434;28;20497;-49
2022/08/18 07:48:17;;;;;;;7.20;4.82;;;25.50;54.60;;;;;;5046457;28;20084;-51
2022/08/18 07:50:53;;;;;;;8.10;4.25;;;25.60;54.50;;;;;;5046677;28;20087;-51
2022/08/18 07:53:34;;;;;;;7.40;4.60;;;25.60;54.40;;;;;;5041778;28;20076;-53
2022/08/18 07:56:05;;;;;;;6.40;5.25;;;25.60;54.30;;;;;;5046956;28;20509;-52
2022/08/18 07:58:41;;;;;;;7.60;5.78;;;25.70;54.20;;;;;;5046035;28;20064;-48
2022/08/18 08:01:12;;;;;;;;;;;25.70;54.10;;;;;;5047735;28;20128;-49
2022/08/18 08:03:50;;;;;;;5.68;4.85;;;25.70;54.00;;;;;;5046467;28;20020;-51
2022/08/18 08:06:24;;;;;;;6.30;4.47;;;25.80;54.10;;;;;;5046752;28;20052;-53
2022/08/18 08:08:59;;;;;;;10.27;4.85;;;25.80;54.00;;;;;;5047501;28;20033;-54
2022/08/18 08:11:38;;;;;;;10.30;5.72;;;25.90;54.00;;;;;;5046111;28;20053;-55
2022/08/18 08:14:22;;;;;;;5.88;5.13;;;26.00;54.00;;;;;;5045438;28;20441;-45
2022/08/18 08:16:56;;;;;;;8.63;5.55;;;26.00;54.00;;;;;;5037080;28;20160;-47
2022/08/18 08:19:44;;;;;;;12.88;6.40;;;26.10;53.90;;;;;;5046364;28;20045;-51
2022/08/18 08:22:16;;;;;;;7.30;6.30;;;26.10;53.80;;;;;;5044723;28;20045;-58
2022/08/18 08:24:53;;;;;;;6.80;5.22;;;26.10;53.70;;;;;;5048010;28;20037;-59
2022/08/18 08:27:28;;;;;;;15.13;6.03;;;26.20;53.70;;;;;;5045647;28;20053;-59
2022/08/18 08:30:03;;;;;;;11.33;5.57;;;26.30;53.70;;;;;;5046001;28;20144;-58
2022/08/18 08:32:33;;;;;;;8.23;5.45;;;26.30;53.50;;;;;;5043940;28;20497;-57
2022/08/18 08:35:06;;;;;;;5.18;4.65;;;26.40;54.10;;;;;;5044212;28;20152;-58
2022/08/18 08:37:38;;;;;;;8.77;5.90;;;26.40;53.40;;;;;;5053935;28;20045;-58
2022/08/18 08:40:12;;;;;;;10.48;5.82;;;26.50;53.30;;;;;;5054253;28;20087;-56
2022/08/18 08:42:44;;;;;;;8.30;5.72;;;26.50;53.20;;;;;;5057792;28;20497;-57
2022/08/18 08:45:17;;;;;;;7.10;5.55;;;26.60;53.20;;;;;;5049317;28;20509;-56
2022/08/18 08:47:59;;;;;;;7.13;5.50;;;26.60;53.00;;;;;;5050937;28;20050;-57
2022/08/18 08:50:29;;;;;;;6.85;5.30;;;26.70;53.60;;;;;;5051811;28;20127;-58
2022/08/18 08:53:02;;;;;;;8.27;5.80;;;26.80;53.00;;;;;;5051722;28;20045;-58
2022/08/18 08:55:33;;;;;;;9.20;7.13;;;26.80;52.90;;;;;;5051504;28;20128;-57
2022/08/18 08:58:16;;;;;;;10.52;5.50;;;26.90;52.70;;;;;;5053403;28;20062;-56
2022/08/18 09:00:47;;;;;;;7.20;6.50;;;26.90;52.50;;;;;;5037658;28;20033;-57
2022/08/18 09:03:30;;;;;;;9.10;6.20;;;27.00;52.50;;;;;;5052343;28;20053;-56
2022/08/18 09:06:19;;;;;;;10.07;6.55;;;27.10;52.30;;;;;;5064305;28;20036;-56
2022/08/18 09:09:12;;;;;;;11.07;6.28;;;27.10;52.30;;;;;;5041482;28;20045;-54
2022/08/18 09:11:54;;;;;;;9.90;6.18;;;27.20;52.20;;;;;;5050310;28;20474;-51
2022/08/18 09:14:39;;;;;;;7.90;6.25;;;27.20;52.10;;;;;;5049023;28;20041;-53
2022/08/18 09:17:29;;;;;;;8.07;5.40;;;27.30;52.00;;;;;;5050119;28;20418;-53
2022/08/18 09:20:10;;;;;;;5.72;5.10;;;27.40;52.00;;;;;;5047607;28;20090;-47
2022/08/18 09:22:47;;;;;;;5.82;4.45;;;27.50;51.90;;;;;;5044960;28;20040;-56
2022/08/18 09:25:31;;;;;;;6.45;4.95;;;27.50;51.80;;;;;;5047091;28;20040;-53
2022/08/18 09:28:08;;;;;;;4.47;4.07;;;27.60;51.60;;;;;;5054225;28;20686;-55
2022/08/18 09:30:46;;;;;;;7.63;4.15;;;27.70;51.40;;;;;;5048132;28;20051;-56
2022/08/18 09:33:28;;;;;;;8.20;4.90;;;27.70;51.20;;;;;;5053198;28;20540;-56
2022/08/18 09:36:10;;;;;;;4.95;4.28;;;27.80;50.90;;;;;;5053406;28;20060;-56
2022/08/18 09:41:44;;;;;;;5.57;3.95;;;27.80;50.60;;;;;;5048622;28;20401;-54
2022/08/18 09:44:14;;;;;;;6.90;4.50;;;27.90;50.40;;;;;;5049687;28;20056;-54
2022/08/18 09:46:57;;;;;;;5.20;3.65;;;27.90;50.20;;;;;;5050037;28;20044;-55
2022/08/18 09:49:49;;;;;;;7.57;5.00;;;28.00;50.20;;;;;;5052792;28;20040;-55
2022/08/18 09:52:51;;;;;;;4.18;3.78;;;28.00;50.10;;;;;;5048546;28;20040;-55
2022/08/18 09:55:51;;;;;;;3.88;3.05;;;28.00;50.00;;;;;;5007218;28;20057;-56
2022/08/18 09:58:40;;;;;;;3.28;2.97;;;28.00;50.00;;;;;;5006360;28;20526;-53
2022/08/18 10:01:31;;;;;;;6.05;2.92;;;28.00;50.10;;;;;;5011533;28;20128;-56
2022/08/18 10:04:24;;;;;;;4.43;4.00;;;28.00;49.90;;;;;;5013775;28;20049;-54
2022/08/18 10:06:53;;;;;;;4.97;3.60;;;28.10;49.80;;;;;;4994132;28;20133;-55
2022/08/18 10:09:29;;;;;;;5.10;4.20;;;28.10;49.50;;;;;;5016914;28;20068;-55
2022/08/18 10:12:22;;;;;;;2.95;2.75;;;28.10;49.10;;;;;;5022937;28;20593;-56
2022/08/18 10:15:19;;;;;;;3.58;3.08;;;28.20;48.80;;;;;;4997765;28;20049;-55
2022/08/18 10:17:59;;;;;;;2.95;2.75;;;28.20;48.50;;;;;;5008858;28;20550;-56
2022/08/18 10:20:42;;;;;;;5.78;2.47;;;28.20;48.60;;;;;;5019878;28;20135;-54
2022/08/18 10:23:10;;;;;;;2.38;1.80;;;28.30;48.50;;;;;;5010624;28;20561;-54
2022/08/18 10:25:40;;;;;;;5.88;2.35;;;28.30;48.60;;;;;;5025268;28;20037;-54
2022/08/18 10:28:10;;;;;;;2.58;2.38;;;28.30;48.40;;;;;;5049359;28;20051;-55
2022/08/18 10:31:07;;;;;;;3.78;2.08;;;28.40;48.30;;;;;;5049836;28;20527;-55
2022/08/18 10:33:58;;;;;;;1.77;1.67;;;28.40;47.90;;;;;;5055794;28;20447;-56
2022/08/18 10:36:44;;;;;;;1.65;1.55;;;28.50;47.60;;;;;;5051141;28;20045;-55
2022/08/18 10:39:15;;;;;;;1.95;1.60;;;28.50;47.30;;;;;;5048335;28;20041;-56
2022/08/18 10:42:03;;;;;;;1.52;1.30;;;28.50;47.10;;;;;;5048325;28;20041;-56
2022/08/18 10:44:34;;;;;;;2.00;1.88;;;28.50;46.80;;;;;;5047192;28;20135;-56
2022/08/18 10:47:02;;;;;;;1.58;1.52;;;28.50;46.60;;;;;;5048171;28;20040;-54
2022/08/18 10:49:32;;;;;;;5.40;1.65;;;28.60;46.50;;;;;;5048156;28;20048;-56
2022/08/18 10:52:37;;;;;;;12.68;2.72;;;28.60;46.00;;;;;;5043884;28;20045;-52
2022/08/18 10:55:32;;;;;;;2.33;1.35;;;28.70;46.20;;;;;;5045672;28;20052;-56
2022/08/18 10:58:36;;;;;;;1.98;1.00;;;28.70;45.90;;;;;;5048722;28;20048;-55
2022/08/18 11:01:15;;;;;;;1.00;1.00;;;28.70;45.90;;;;;;5038702;28;20057;-56
2022/08/18 11:04:00;;;;;;;2.97;0.85;;;28.70;45.30;;;;;;5048277;28;20124;-55
2022/08/18 11:06:28;;;;;;;1.20;1.20;;;28.80;45.40;;;;;;5048043;28;20149;-56
2022/08/18 11:09:00;;;;;;;1.65;1.17;;;28.80;45.60;;;;;;5047671;28;20292;-52
2022/08/18 11:11:35;;;;;;;1.60;1.50;;;28.90;45.40;;;;;;5038187;28;20045;-56
2022/08/18 11:14:11;;;;;;;3.05;1.55;;;28.80;45.10;;;;;;5061352;28;20094;-56
2022/08/18 11:16:49;;;;;;;2.08;1.95;;;28.90;45.40;;;;;;5043501;28;20127;-54
2022/08/18 11:19:21;;;;;;;4.53;1.58;;;29.00;45.40;;;;;;5047476;28;20053;-55
2022/08/18 11:21:50;;;;;;;4.07;1.27;;;29.00;45.30;;;;;;5048101;28;20102;-53
2022/08/18 11:24:20;;;;;;;2.70;2.50;;;29.00;45.30;;;;;;5047921;28;20041;-55
2022/08/18 11:26:53;;;;;;;1.40;1.33;;;29.10;45.50;;;;;;5033460;28;20037;-54
2022/08/18 11:29:25;;;;;;;1.27;1.23;;;29.20;45.30;;;;;;5047549;28;20040;-53
2022/08/18 11:31:56;;;;;;;1.67;1.50;;;29.20;45.40;;;;;;5047881;28;20127;-55
2022/08/18 11:34:30;;;;;;;2.25;2.10;;;29.20;45.00;;;;;;5047588;28;20132;-55
2022/08/18 11:36:59;;;;;;;1.35;1.30;;;29.30;45.00;;;;;;5051891;28;20135;-54
2022/08/18 11:39:27;;;;;;;2.75;0.75;;;29.40;44.90;;;;;;5055354;28;20072;-55
2022/08/18 11:41:56;;;;;;;1.85;1.70;;;29.40;44.80;;;;;;5047732;28;20037;-55
2022/08/18 11:44:30;;;;;;;1.67;1.33;;;29.40;44.80;;;;;;5048480;28;20418;-55
2022/08/18 11:47:10;;;;;;;2.40;0.77;;;29.40;44.60;;;;;;5048419;28;20072;-56
2022/08/18 11:49:37;;;;;;;4.55;2.65;;;29.50;44.60;;;;;;5048030;28;20098;-53
2022/08/18 11:52:18;;;;;;;1.60;1.50;;;29.50;44.40;;;;;;5047540;28;20505;-55
2022/08/18 11:54:49;;;;;;;2.30;1.88;;;29.60;43.90;;;;;;5042936;28;20033;-54
2022/08/18 11:57:31;;;;;;;1.58;1.00;;;29.70;43.80;;;;;;5056758;28;20090;-54
2022/08/18 11:59:59;;;;;;;3.85;1.02;;;29.70;43.80;;;;;;5053252;28;20472;-54
2022/08/18 12:02:26;;;;;;;3.50;1.08;;;29.70;43.70;;;;;;5048463;28;20126;-56
2022/08/18 12:04:59;;;;;;;4.30;1.20;;;29.80;43.80;;;;;;5050363;28;20048;-55
2022/08/18 12:07:30;;;;;;;4.28;1.38;;;29.80;43.80;;;;;;5044473;28;20049;-52
2022/08/18 12:10:19;;;;;;;4.32;0.93;;;29.90;43.80;;;;;;5048161;28;20104;-54
2022/08/18 12:12:50;;;;;;;1.45;1.05;;;30.00;43.80;;;;;;5038958;28;20409;-52
2022/08/18 12:15:30;;;;;;;1.38;0.70;;;30.00;43.70;;;;;;5047903;28;20124;-52
2022/08/18 12:17:57;;;;;;;2.58;0.90;;;30.10;43.40;;;;;;5047853;28;20041;-54
2022/08/18 12:20:24;;;;;;;1.90;0.55;;;30.00;43.10;;;;;;5047333;28;20514;-53
2022/08/18 12:22:55;;;;;;;0.63;0.50;;;30.10;42.60;;;;;;5051111;28;20119;-56
2022/08/18 12:25:22;;;;;;;5.38;0.45;;;30.10;42.90;;;;;;5052771;28;20120;-54
2022/08/18 12:27:50;;;;;;;0.80;0.80;;;30.20;41.80;;;;;;5051404;28;20033;-55
2022/08/18 12:30:17;;;;;;;1.00;0.60;;;30.20;41.60;;;;;;5054516;28;20128;-54
2022/08/18 12:32:45;;;;;;;0.93;0.93;;;30.20;41.30;;;;;;5049358;28;20057;-54
2022/08/18 12:35:12;;;;;;;1.73;1.63;;;30.30;42.00;;;;;;5055417;28;20088;-53
2022/08/18 12:37:43;;;;;;;2.08;1.30;;;30.30;41.60;;;;;;5052992;28;20778;-55
2022/08/18 12:40:12;;;;;;;5.07;0.60;;;30.40;41.70;;;;;;5049826;28;20053;-55
2022/08/18 12:42:39;;;;;;;1.23;0.98;;;30.40;41.60;;;;;;5051642;28;20064;-53
2022/08/18 12:45:09;;;;;;;1.27;0.95;;;30.30;41.60;;;;;;5050023;28;20051;-56
2022/08/18 12:47:39;;;;;;;0.88;0.88;;;30.40;41.50;;;;;;5050282;28;20045;-55
2022/08/18 12:50:08;;;;;;;1.83;1.38;;;30.40;41.40;;;;;;5044503;28;20079;-53
2022/08/18 12:52:35;;;;;;;4.70;1.15;;;30.50;41.30;;;;;;5043978;28;20448;-55
2022/08/18 12:55:02;;;;;;;0.60;0.60;;;30.50;41.30;;;;;;5049516;28;20129;-55
2022/08/18 12:57:29;;;;;;;0.63;0.50;;;30.50;41.30;;;;;;5052857;28;20069;-55
2022/08/18 12:59:56;;;;;;;3.08;1.05;;;30.50;41.10;;;;;;5048991;28;20037;-55
2022/08/18 13:02:24;;;;;;;1.73;0.82;;;30.60;41.40;;;;;;5051595;28;20039;-53
2022/08/18 13:04:51;;;;;;;0.93;0.85;;;30.60;41.10;;;;;;5049265;28;20091;-52
2022/08/18 13:07:18;;;;;;;1.55;1.05;;;30.60;41.10;;;;;;5051223;28;20449;-59
2022/08/18 13:09:45;;;;;;;5.40;0.82;;;30.60;41.40;;;;;;5050205;28;20079;-52
2022/08/18 13:12:14;;;;;;;1.27;1.15;;;30.70;41.60;;;;;;5049997;28;20037;-55
2022/08/18 13:14:41;;;;;;;1.50;0.57;;;30.70;41.70;;;;;;5050221;28;20425;-56
2022/08/18 13:17:08;;;;;;;1.75;1.60;;;30.70;41.70;;;;;;5050097;28;20048;-54
2022/08/18 13:19:38;;;;;;;5.30;2.13;;;30.80;41.70;;;;;;5050047;28;20612;-56
2022/08/18 13:22:05;;;;;;;4.78;1.02;;;30.80;41.70;;;;;;5050025;28;20543;-55
2022/08/18 13:24:32;;;;;;;1.15;1.13;;;30.80;41.60;;;;;;5050272;28;20048;-56
2022/08/18 13:26:59;;;;;;;3.15;0.85;;;30.80;41.60;;;;;;5050085;28;20041;-55
2022/08/18 13:29:26;;;;;;;1.73;1.52;;;30.80;41.60;;;;;;5048917;28;20102;-51
2022/08/18 13:31:56;;;;;;;1.80;1.25;;;30.80;41.60;;;;;;5048981;28;20068;-53
2022/08/18 13:34:26;;;;;;;4.07;1.48;;;30.90;41.70;;;;;;5047286;28;20049;-54